sensor_id;sensor_type;location;lat;lon;timestamp;P1;durP1;ratioP1;P2;durP2;ratioP2
43994;SDS011;51687;52.160;5.298;2024-03-08T17:08:16;19.23;;;17.63;;
43994;SDS011;51687;52.160;5.298;2024-03-08T17:10:44;19.30;;;17.77;;
43994;SDS011;51687;52.160;5.298;2024-03-08T17:13:11;21.77;;;19.88;;
43994;SDS011;51687;52.160;5.298;2024-03-08T17:15:41;18.67;;;17.27;;
43994;SDS011;51687;52.160;5.298;2024-03-08T17:18:09;20.23;;;18.67;;
43994;SDS011;51687;52.160;5.298;2024-03-08T17:20:36;18.10;;;16.70;;
43994;SDS011;51687;52.160;5.298;2024-03-08T17:23:05;20.70;;;18.75;;
43994;SDS011;51687;52.160;5.298;2024-03-08T17:25:35;20.25;;;18.42;;
43994;SDS011;51687;52.160;5.298;2024-03-08T17:28:04;20.17;;;18.35;;
43994;SDS011;51687;52.160;5.298;2024-03-08T17:30:33;21.52;;;19.33;;
43994;SDS011;51687;52.160;5.298;2024-03-08T17:33:04;22.42;;;20.50;;
43994;SDS011;51687;52.160;5.298;2024-03-08T17:35:44;20.88;;;18.95;;
43994;SDS011;51687;52.160;5.298;2024-03-08T17:38:11;21.20;;;19.50;;
43994;SDS011;51687;52.160;5.298;2024-03-08T17:40:40;22.00;;;19.85;;
43994;SDS011;51687;52.160;5.298;2024-03-08T17:43:08;21.80;;;19.75;;
43994;SDS011;51687;52.160;5.298;2024-03-08T17:45:40;21.17;;;19.35;;
43994;SDS011;51687;52.160;5.298;2024-03-08T17:48:13;21.25;;;19.55;;
43994;SDS011;51687;52.160;5.298;2024-03-08T17:50:44;21.60;;;19.95;;
43994;SDS011;51687;52.160;5.298;2024-03-08T17:53:12;22.85;;;20.80;;
43994;SDS011;51687;52.160;5.298;2024-03-08T17:55:40;19.90;;;18.33;;
43994;SDS011;51687;52.160;5.298;2024-03-08T17:58:08;21.25;;;19.38;;
43994;SDS011;51687;52.160;5.298;2024-03-08T18:00:37;21.73;;;19.80;;
43994;SDS011;51687;52.160;5.298;2024-03-08T18:03:06;22.60;;;20.70;;
43994;SDS011;51687;52.160;5.298;2024-03-08T18:05:41;21.40;;;19.73;;
43994;SDS011;51687;52.160;5.298;2024-03-08T18:08:11;22.73;;;21.02;;
43994;SDS011;51687;52.160;5.298;2024-03-08T18:10:39;24.67;;;22.35;;
43994;SDS011;51687;52.160;5.298;2024-03-08T18:13:08;22.92;;;21.08;;
43994;SDS011;51687;52.160;5.298;2024-03-08T18:15:39;22.77;;;20.90;;
43994;SDS011;51687;52.160;5.298;2024-03-08T18:18:06;22.80;;;21.05;;
43994;SDS011;51687;52.160;5.298;2024-03-08T18:20:39;22.10;;;20.40;;
43994;SDS011;51687;52.160;5.298;2024-03-08T18:23:15;22.33;;;20.45;;
43994;SDS011;51687;52.160;5.298;2024-03-08T18:25:42;23.20;;;21.30;;
43994;SDS011;51687;52.160;5.298;2024-03-08T18:28:13;23.75;;;21.75;;
43994;SDS011;51687;52.160;5.298;2024-03-08T18:30:43;24.25;;;22.13;;
43994;SDS011;51687;52.160;5.298;2024-03-08T18:33:12;23.25;;;21.50;;
43994;SDS011;51687;52.160;5.298;2024-03-08T18:35:41;22.48;;;20.77;;
43994;SDS011;51687;52.160;5.298;2024-03-08T18:38:09;22.77;;;21.08;;
43994;SDS011;51687;52.160;5.298;2024-03-08T18:40:37;21.88;;;19.75;;
43994;SDS011;51687;52.160;5.298;2024-03-08T18:43:11;23.00;;;21.20;;
43994;SDS011;51687;52.160;5.298;2024-03-08T18:45:39;23.75;;;21.88;;
43994;SDS011;51687;52.160;5.298;2024-03-08T18:48:08;23.38;;;20.95;;
43994;SDS011;51687;52.160;5.298;2024-03-08T18:50:38;24.25;;;22.08;;
43994;SDS011;51687;52.160;5.298;2024-03-08T18:53:06;22.52;;;20.77;;
43994;SDS011;51687;52.160;5.298;2024-03-08T18:55:36;24.38;;;22.27;;
43994;SDS011;51687;52.160;5.298;2024-03-08T18:58:03;24.02;;;22.02;;
43994;SDS011;51687;52.160;5.298;2024-03-08T19:00:31;25.48;;;23.02;;
43994;SDS011;51687;52.160;5.298;2024-03-08T19:03:06;24.17;;;22.27;;
43994;SDS011;51687;52.160;5.298;2024-03-08T19:05:38;24.88;;;22.42;;
43994;SDS011;51687;52.160;5.298;2024-03-08T19:08:07;24.33;;;22.23;;
43994;SDS011;51687;52.160;5.298;2024-03-08T19:10:35;26.02;;;23.38;;
43994;SDS011;51687;52.160;5.298;2024-03-08T19:13:07;25.92;;;23.77;;
43994;SDS011;51687;52.160;5.298;2024-03-08T19:15:37;24.48;;;22.45;;
43994;SDS011;51687;52.160;5.298;2024-03-08T19:18:05;25.08;;;22.83;;
43994;SDS011;51687;52.160;5.298;2024-03-08T19:20:35;24.30;;;22.33;;
43994;SDS011;51687;52.160;5.298;2024-03-08T19:23:03;24.73;;;22.57;;
43994;SDS011;51687;52.160;5.298;2024-03-08T19:25:33;24.58;;;22.52;;
43994;SDS011;51687;52.160;5.298;2024-03-08T19:28:01;24.80;;;22.83;;
43994;SDS011;51687;52.160;5.298;2024-03-08T19:30:31;26.85;;;24.30;;
43994;SDS011;51687;52.160;5.298;2024-03-08T19:32:59;26.95;;;24.63;;
43994;SDS011;51687;52.160;5.298;2024-03-08T19:35:27;25.02;;;23.00;;
43994;SDS011;51687;52.160;5.298;2024-03-08T19:37:56;25.55;;;23.35;;
43994;SDS011;51687;52.160;5.298;2024-03-08T19:40:26;25.30;;;22.90;;
43994;SDS011;51687;52.160;5.298;2024-03-08T19:42:59;26.38;;;24.15;;
43994;SDS011;51687;52.160;5.298;2024-03-08T19:45:28;24.38;;;22.35;;
43994;SDS011;51687;52.160;5.298;2024-03-08T19:47:56;25.42;;;23.52;;
43994;SDS011;51687;52.160;5.298;2024-03-08T19:50:28;26.50;;;24.08;;
43994;SDS011;51687;52.160;5.298;2024-03-08T19:52:56;25.48;;;23.25;;
43994;SDS011;51687;52.160;5.298;2024-03-08T19:55:37;25.20;;;22.90;;
43994;SDS011;51687;52.160;5.298;2024-03-08T19:58:06;25.75;;;23.52;;
43994;SDS011;51687;52.160;5.298;2024-03-08T20:00:33;24.83;;;22.63;;
43994;SDS011;51687;52.160;5.298;2024-03-08T20:03:05;26.67;;;24.33;;
43994;SDS011;51687;52.160;5.298;2024-03-08T20:05:34;26.23;;;23.92;;
43994;SDS011;51687;52.160;5.298;2024-03-08T20:08:02;27.45;;;24.83;;
43994;SDS011;51687;52.160;5.298;2024-03-08T20:10:40;27.13;;;24.40;;
43994;SDS011;51687;52.160;5.298;2024-03-08T20:13:09;27.05;;;24.75;;
43994;SDS011;51687;52.160;5.298;2024-03-08T20:15:36;27.70;;;25.02;;
43994;SDS011;51687;52.160;5.298;2024-03-08T20:18:08;27.42;;;24.75;;
43994;SDS011;51687;52.160;5.298;2024-03-08T20:20:36;27.87;;;25.47;;
43994;SDS011;51687;52.160;5.298;2024-03-08T20:23:05;27.90;;;25.42;;
43994;SDS011;51687;52.160;5.298;2024-03-08T20:25:35;28.08;;;25.38;;
43994;SDS011;51687;52.160;5.298;2024-03-08T20:28:04;30.77;;;27.80;;
43994;SDS011;51687;52.160;5.298;2024-03-08T20:30:32;30.20;;;27.15;;
43994;SDS011;51687;52.160;5.298;2024-03-08T20:33:02;28.13;;;25.48;;
43994;SDS011;51687;52.160;5.298;2024-03-08T20:35:30;27.73;;;25.42;;
43994;SDS011;51687;52.160;5.298;2024-03-08T20:38:02;27.38;;;24.95;;
43994;SDS011;51687;52.160;5.298;2024-03-08T20:40:33;27.90;;;25.33;;
43994;SDS011;51687;52.160;5.298;2024-03-08T20:43:08;27.08;;;24.55;;
43994;SDS011;51687;52.160;5.298;2024-03-08T20:45:41;28.20;;;25.50;;
43994;SDS011;51687;52.160;5.298;2024-03-08T20:48:09;25.63;;;23.33;;
43994;SDS011;51687;52.160;5.298;2024-03-08T20:50:36;26.65;;;24.40;;
43994;SDS011;51687;52.160;5.298;2024-03-08T20:53:04;28.88;;;26.35;;
43994;SDS011;51687;52.160;5.298;2024-03-08T20:55:36;27.38;;;24.95;;
43994;SDS011;51687;52.160;5.298;2024-03-08T20:58:11;25.27;;;23.17;;
43994;SDS011;51687;52.160;5.298;2024-03-08T21:00:38;24.42;;;22.40;;
43994;SDS011;51687;52.160;5.298;2024-03-08T21:03:12;28.38;;;25.90;;
43994;SDS011;51687;52.160;5.298;2024-03-08T21:05:40;28.80;;;26.23;;
43994;SDS011;51687;52.160;5.298;2024-03-08T21:08:08;28.17;;;25.55;;
43994;SDS011;51687;52.160;5.298;2024-03-08T21:10:42;28.33;;;25.48;;
43994;SDS011;51687;52.160;5.298;2024-03-08T21:13:12;29.33;;;26.83;;
43994;SDS011;51687;52.160;5.298;2024-03-08T21:15:40;28.65;;;25.98;;
43994;SDS011;51687;52.160;5.298;2024-03-08T21:18:08;26.83;;;24.33;;
43994;SDS011;51687;52.160;5.298;2024-03-08T21:20:36;28.23;;;25.45;;
43994;SDS011;51687;52.160;5.298;2024-03-08T21:23:03;29.08;;;26.20;;
43994;SDS011;51687;52.160;5.298;2024-03-08T21:25:33;28.15;;;25.50;;
43994;SDS011;51687;52.160;5.298;2024-03-08T21:28:02;30.42;;;27.55;;
43994;SDS011;51687;52.160;5.298;2024-03-08T21:30:32;28.35;;;25.88;;
43994;SDS011;51687;52.160;5.298;2024-03-08T21:32:59;29.85;;;27.00;;
43994;SDS011;51687;52.160;5.298;2024-03-08T21:35:28;29.35;;;26.65;;
43994;SDS011;51687;52.160;5.298;2024-03-08T21:37:59;29.83;;;27.02;;
43994;SDS011;51687;52.160;5.298;2024-03-08T21:40:27;30.00;;;27.20;;
43994;SDS011;51687;52.160;5.298;2024-03-08T21:42:57;29.38;;;26.67;;
43994;SDS011;51687;52.160;5.298;2024-03-08T21:45:29;29.17;;;26.65;;
43994;SDS011;51687;52.160;5.298;2024-03-08T21:47:58;29.13;;;26.23;;
43994;SDS011;51687;52.160;5.298;2024-03-08T21:50:30;30.23;;;27.10;;
43994;SDS011;51687;52.160;5.298;2024-03-08T21:52:58;29.52;;;26.67;;
43994;SDS011;51687;52.160;5.298;2024-03-08T21:55:26;29.45;;;26.83;;
43994;SDS011;51687;52.160;5.298;2024-03-08T21:57:54;30.92;;;27.83;;
43994;SDS011;51687;52.160;5.298;2024-03-08T22:00:20;31.25;;;28.08;;
43994;SDS011;51687;52.160;5.298;2024-03-08T22:02:50;29.70;;;26.85;;
43994;SDS011;51687;52.160;5.298;2024-03-08T22:05:17;30.00;;;27.15;;
43994;SDS011;51687;52.160;5.298;2024-03-08T22:07:50;29.52;;;26.67;;
43994;SDS011;51687;52.160;5.298;2024-03-08T22:10:17;30.23;;;27.35;;
43994;SDS011;51687;52.160;5.298;2024-03-08T22:12:53;30.20;;;27.40;;
43994;SDS011;51687;52.160;5.298;2024-03-08T22:15:21;30.60;;;27.60;;
43994;SDS011;51687;52.160;5.298;2024-03-08T22:17:50;30.98;;;27.70;;
43994;SDS011;51687;52.160;5.298;2024-03-08T22:20:22;31.40;;;28.33;;
43994;SDS011;51687;52.160;5.298;2024-03-08T22:22:53;32.03;;;28.90;;
43994;SDS011;51687;52.160;5.298;2024-03-08T22:25:21;32.10;;;29.10;;
43994;SDS011;51687;52.160;5.298;2024-03-08T22:27:48;30.52;;;27.65;;
43994;SDS011;51687;52.160;5.298;2024-03-08T22:30:16;33.42;;;29.98;;
43994;SDS011;51687;52.160;5.298;2024-03-08T22:32:51;31.35;;;28.23;;
43994;SDS011;51687;52.160;5.298;2024-03-08T22:35:22;30.70;;;27.35;;
43994;SDS011;51687;52.160;5.298;2024-03-08T22:37:51;32.97;;;29.65;;
43994;SDS011;51687;52.160;5.298;2024-03-08T22:40:20;29.40;;;26.52;;
43994;SDS011;51687;52.160;5.298;2024-03-08T22:42:51;30.52;;;27.55;;
43994;SDS011;51687;52.160;5.298;2024-03-08T22:45:18;30.42;;;27.27;;
43994;SDS011;51687;52.160;5.298;2024-03-08T22:47:45;30.60;;;27.70;;
43994;SDS011;51687;52.160;5.298;2024-03-08T22:50:13;29.10;;;26.23;;
43994;SDS011;51687;52.160;5.298;2024-03-08T22:52:42;30.20;;;27.58;;
43994;SDS011;51687;52.160;5.298;2024-03-08T22:55:14;31.23;;;27.95;;
43994;SDS011;51687;52.160;5.298;2024-03-08T22:57:49;31.40;;;27.80;;
43994;SDS011;51687;52.160;5.298;2024-03-08T23:00:18;32.70;;;29.42;;
43994;SDS011;51687;52.160;5.298;2024-03-08T23:02:53;31.27;;;28.30;;
43994;SDS011;51687;52.160;5.298;2024-03-08T23:05:22;30.58;;;27.58;;
43994;SDS011;51687;52.160;5.298;2024-03-08T23:07:50;34.05;;;29.20;;
43994;SDS011;51687;52.160;5.298;2024-03-08T23:10:19;31.25;;;28.13;;
43994;SDS011;51687;52.160;5.298;2024-03-08T23:12:54;30.60;;;27.85;;
43994;SDS011;51687;52.160;5.298;2024-03-08T23:15:21;32.00;;;28.70;;
43994;SDS011;51687;52.160;5.298;2024-03-08T23:17:55;31.95;;;29.15;;
43994;SDS011;51687;52.160;5.298;2024-03-08T23:20:23;31.48;;;28.52;;
43994;SDS011;51687;52.160;5.298;2024-03-08T23:22:59;31.00;;;28.10;;
43994;SDS011;51687;52.160;5.298;2024-03-08T23:25:30;31.80;;;28.70;;
43994;SDS011;51687;52.160;5.298;2024-03-08T23:27:58;31.00;;;27.87;;
43994;SDS011;51687;52.160;5.298;2024-03-08T23:30:30;34.53;;;29.75;;
43994;SDS011;51687;52.160;5.298;2024-03-08T23:32:59;32.25;;;29.25;;
43994;SDS011;51687;52.160;5.298;2024-03-08T23:35:30;28.33;;;25.67;;
43994;SDS011;51687;52.160;5.298;2024-03-08T23:37:57;32.78;;;29.58;;
43994;SDS011;51687;52.160;5.298;2024-03-08T23:40:24;34.63;;;30.88;;
43994;SDS011;51687;52.160;5.298;2024-03-08T23:42:51;33.25;;;29.83;;
43994;SDS011;51687;52.160;5.298;2024-03-08T23:45:18;27.35;;;24.52;;
43994;SDS011;51687;52.160;5.298;2024-03-08T23:47:50;33.28;;;30.05;;
43994;SDS011;51687;52.160;5.298;2024-03-08T23:50:23;33.65;;;30.45;;
43994;SDS011;51687;52.160;5.298;2024-03-08T23:52:53;31.20;;;28.30;;
43994;SDS011;51687;52.160;5.298;2024-03-08T23:55:30;31.52;;;28.52;;
43994;SDS011;51687;52.160;5.298;2024-03-08T23:58:05;30.33;;;27.52;;
